Lothian, MD

5:12 PM EDT on March 27, 2015 (GMT -0400)
Andrews Air Force Base-Naf | | Change Station
CLOSE
Current Station
Airport
Location: Andrews AFB,
Elevation: 282 ft
Nearby Weather Stations

Elev 282 ft 38.81 °N, 76.87 °W | Updated 14 minutes ago

Overcast
Overcast
46 °F
Feels Like 42 °F
N
9
Wind Variable Wind from North

Today
High -- | Low -- °F
--% Chance of Precip.
Yesterday
High -- | Low -- °F
Precip. -- in
6:59 AM 7:25 PM
First Quarter, 56% visible
Pressure 29.78 in
Visibility 10.0 miles
Clouds Few 4700 ft
Scattered Clouds 18000 ft
Windchill 42 °F
Dew Point 31 °F
Humidity 54%
Rainfall 0.67 in
Snow Depth Not available.
UV 2 out of 12
Pollen 4.00 out of 12
Air Quality Not available.
Flu Activity Not available.
METAR KADW 272058Z AUTO 35008KT 10SM FEW047 SCT180 08/M01 A2975 RMK AO2 SLP082 T00801007 57010 $

More Conditions Fewer Conditions

Pressure 29.78 in
Visibility 10.0 miles
Clouds Few 4700 ft
Scattered Clouds 18000 ft
Windchill 42 °F
Dew Point 31 °F
Humidity 54%
Rainfall 0.67 in
Snow Depth Not available.
UV 2 out of 12
Pollen 4.00 out of 12
Air Quality Not available.
Flu Activity Not available.
METAR KADW 272058Z AUTO 35008KT 10SM FEW047 SCT180 08/M01 A2975 RMK AO2 SLP082 T00801007 57010 $

More Conditions Fewer Conditions

10-Day Weather Forecast

Almanac

Astronomy

Mar. 27, 2015 Rise Set
Actual Time
Civil Twilight
Nautical Twilight
Astronomical Twilight
Moon
Length of Visible Light
Length of Day
Tomorrow will be .
, % of the Moon is Illuminated

Today's Extremes

State Highs State Lows

Community

WunderPhotos

Upload Photos

1,808,826 photos uploaded!

WunderBlogs® & News

Nearby

Air Quality

  Air Quality AQ Index Pollutant
Not available.

Snow Depth

Station Depth Elevation

Earthquake Activity

City Distance Mag. Time & Date
Minimum magnitude displayed is 2.5.

Coastal Water Temperatures

Place Temperature

Stations

Nearby Weather Stations

Station Location Temp. Windchill Dew Point Humidity Wind Precip. Elev Updated Type